createdAt,value
2023-01-09T08:50:37.273Z,992.88
2023-01-09T08:51:37.227Z,992.90
2023-01-09T08:52:37.205Z,992.82
2023-01-09T08:53:37.200Z,992.85
2023-01-09T08:54:37.187Z,992.81
2023-01-09T08:55:37.181Z,992.85
2023-01-09T08:56:37.165Z,992.90
2023-01-09T08:57:37.149Z,992.88
2023-01-09T08:58:37.149Z,992.92
2023-01-09T08:59:37.126Z,992.95
2023-01-09T09:00:37.134Z,992.92
2023-01-09T09:01:37.200Z,992.95
2023-01-09T09:02:37.124Z,992.87
2023-01-09T09:03:37.210Z,992.99
2023-01-09T09:04:37.073Z,992.88
2023-01-09T09:05:37.066Z,992.99
2023-01-09T09:06:37.060Z,992.98
2023-01-09T09:07:37.029Z,992.91
2023-01-09T09:08:37.033Z,993.01
2023-01-09T09:09:37.022Z,993.00
2023-01-09T09:10:37.022Z,993.12
2023-01-09T09:11:36.998Z,993.11
2023-01-09T09:12:36.996Z,993.13
2023-01-09T09:13:36.975Z,993.07
2023-01-09T09:14:36.966Z,993.15
2023-01-09T09:15:36.964Z,993.15
2023-01-09T09:16:36.937Z,993.17
2023-01-09T09:17:36.934Z,993.17
2023-01-09T09:18:36.923Z,993.21
2023-01-09T09:19:36.907Z,993.18
2023-01-09T09:20:36.929Z,993.16
2023-01-09T09:21:36.889Z,993.27
2023-01-09T09:22:36.907Z,993.19
2023-01-09T09:23:36.848Z,993.26
2023-01-09T09:24:36.832Z,993.23
2023-01-09T09:25:36.855Z,993.24
2023-01-09T09:26:36.830Z,993.25
2023-01-09T09:27:36.823Z,993.26
2023-01-09T09:28:36.793Z,993.25
2023-01-09T09:29:36.779Z,993.26
2023-01-09T09:30:36.803Z,993.29
2023-01-09T09:31:36.845Z,993.29
2023-01-09T09:32:36.744Z,993.29
2023-01-09T09:33:36.757Z,993.30
2023-01-09T09:34:36.727Z,993.30
2023-01-09T09:35:36.728Z,993.29
2023-01-09T09:36:36.785Z,993.28
2023-01-09T09:37:36.706Z,993.26
2023-01-09T09:38:36.751Z,993.31
2023-01-09T09:39:36.682Z,993.28
2023-01-09T09:40:36.671Z,993.33
2023-01-09T09:41:36.647Z,993.34
2023-01-09T09:42:36.645Z,993.38
2023-01-09T09:43:36.638Z,993.37
2023-01-09T09:44:36.623Z,993.36
2023-01-09T09:45:36.629Z,993.43
2023-01-09T09:46:36.657Z,993.48
2023-01-09T09:47:36.580Z,993.49
2023-01-09T09:48:36.570Z,993.52
2023-01-09T09:49:36.558Z,993.53
2023-01-09T09:50:36.571Z,993.55
2023-01-09T09:51:36.560Z,993.57
2023-01-09T09:52:36.530Z,993.60
2023-01-09T09:53:36.567Z,993.59
2023-01-09T09:54:36.539Z,993.67
2023-01-09T09:55:36.518Z,993.60
2023-01-09T09:56:36.478Z,993.64
2023-01-09T09:57:36.473Z,993.64
2023-01-09T09:58:36.469Z,993.64
2023-01-09T09:59:36.479Z,993.65
2023-01-09T10:00:36.451Z,993.65
2023-01-09T10:01:36.452Z,993.67
2023-01-09T10:02:36.535Z,993.67
2023-01-09T10:03:36.496Z,993.73
2023-01-09T10:04:36.399Z,993.70
2023-01-09T10:05:36.407Z,993.71
2023-01-09T10:06:36.393Z,993.69
2023-01-09T10:07:36.359Z,993.73
2023-01-09T10:08:36.342Z,993.76
2023-01-09T10:09:36.343Z,993.75
2023-01-09T10:10:36.362Z,993.76
2023-01-09T10:11:36.338Z,993.79
2023-01-09T10:12:36.309Z,993.75
2023-01-09T10:13:36.302Z,993.77
2023-01-09T10:14:36.286Z,993.84
2023-01-09T10:15:38.380Z,993.73
2023-01-09T10:16:36.288Z,993.75
2023-01-09T10:17:36.267Z,993.75
2023-01-09T10:18:36.246Z,993.73
2023-01-09T10:19:36.248Z,993.78
2023-01-09T10:20:36.234Z,993.78
2023-01-09T10:21:36.211Z,993.78
2023-01-09T10:22:36.206Z,993.75
2023-01-09T10:23:36.197Z,993.71
2023-01-09T10:24:36.174Z,993.72
2023-01-09T10:25:36.167Z,993.74
2023-01-09T10:26:36.164Z,993.73
2023-01-09T10:27:36.165Z,993.73
2023-01-09T10:28:36.130Z,993.75
2023-01-09T10:29:36.124Z,993.74
2023-01-09T10:30:36.100Z,993.76
2023-01-09T10:31:36.160Z,993.76
2023-01-09T10:32:36.084Z,993.80
2023-01-09T10:33:36.125Z,993.81
2023-01-09T10:34:36.061Z,993.82
2023-01-09T10:35:47.040Z,993.81
2023-01-09T10:36:37.110Z,993.77
2023-01-09T10:37:36.032Z,993.83
2023-01-09T10:38:36.019Z,993.82
2023-01-09T10:39:35.998Z,993.88
2023-01-09T10:40:35.982Z,993.82
2023-01-09T10:41:35.989Z,993.80
2023-01-09T10:42:35.978Z,993.77
2023-01-09T10:43:35.991Z,993.73
2023-01-09T10:44:35.957Z,993.77
2023-01-09T10:45:35.944Z,993.77
2023-01-09T10:46:37.553Z,993.71
2023-01-09T10:47:35.913Z,993.73
2023-01-09T10:48:35.919Z,993.76
2023-01-09T10:49:35.898Z,993.79
2023-01-09T10:50:35.932Z,993.76
2023-01-09T10:51:35.868Z,993.80
2023-01-09T10:52:35.847Z,993.77
2023-01-09T10:53:35.869Z,993.74
2023-01-09T10:54:35.832Z,993.75
2023-01-09T10:55:35.826Z,993.74
2023-01-09T10:56:35.798Z,993.80
2023-01-09T10:57:35.812Z,993.84
2023-01-09T10:58:35.818Z,993.79
2023-01-09T10:59:35.785Z,993.77
2023-01-09T11:00:35.771Z,993.71
2023-01-09T11:01:35.758Z,993.72
2023-01-09T11:02:35.806Z,993.80
2023-01-09T11:03:35.795Z,993.80
2023-01-09T11:04:35.720Z,993.81
2023-01-09T11:05:35.731Z,993.75
2023-01-09T11:06:35.706Z,993.77
2023-01-09T11:07:35.701Z,993.90
2023-01-09T11:08:35.724Z,993.75
2023-01-09T11:09:35.672Z,993.69
2023-01-09T11:10:35.644Z,993.76
2023-01-09T11:11:35.653Z,993.83
2023-01-09T11:12:35.639Z,993.75
2023-01-09T11:13:35.634Z,993.75
2023-01-09T11:14:35.638Z,993.76
2023-01-09T11:15:35.607Z,993.76
2023-01-09T11:16:35.599Z,993.74
2023-01-09T11:17:35.574Z,993.81
2023-01-09T11:18:35.581Z,993.72
2023-01-09T11:19:35.566Z,993.74
2023-01-09T11:20:35.544Z,993.76
2023-01-09T11:21:35.539Z,993.79
2023-01-09T11:22:35.529Z,993.84
2023-01-09T11:23:35.509Z,993.82
2023-01-09T11:24:35.513Z,993.88
2023-01-09T11:25:35.511Z,993.88
2023-01-09T11:26:35.512Z,993.86
2023-01-09T11:27:35.477Z,993.93
2023-01-09T11:28:35.440Z,993.94
2023-01-09T11:29:35.450Z,993.90
2023-01-09T11:30:35.544Z,993.92
2023-01-09T11:31:35.506Z,993.95
2023-01-09T11:32:35.404Z,994.00
2023-01-09T11:33:35.417Z,993.99
2023-01-09T11:34:35.415Z,993.97
2023-01-09T11:35:35.379Z,993.99
2023-01-09T11:36:35.432Z,993.96
2023-01-09T11:37:35.345Z,994.01
2023-01-09T11:38:35.333Z,994.00
2023-01-09T11:39:35.343Z,994.03
2023-01-09T11:40:35.319Z,994.09
2023-01-09T11:41:35.304Z,994.07
2023-01-09T11:42:35.297Z,994.06
2023-01-09T11:43:35.300Z,994.10
2023-01-09T11:44:35.261Z,994.06
2023-01-09T11:45:35.268Z,994.09
2023-01-09T11:46:35.346Z,994.11
2023-01-09T11:47:35.234Z,994.13
2023-01-09T11:48:35.216Z,994.19
2023-01-09T11:49:35.209Z,994.16
2023-01-09T11:50:35.226Z,994.15
2023-01-09T11:51:35.198Z,994.16
2023-01-09T11:52:35.183Z,994.16
2023-01-09T11:53:35.176Z,994.15
2023-01-09T11:54:35.162Z,994.20
2023-01-09T11:55:42.372Z,994.15
2023-01-09T11:56:36.153Z,994.17
2023-01-09T11:57:35.123Z,994.15
2023-01-09T11:58:35.140Z,994.13
2023-01-09T11:59:35.109Z,994.07
2023-01-09T12:00:35.103Z,994.21
2023-01-09T12:01:35.094Z,994.18
2023-01-09T12:02:35.093Z,994.20
2023-01-09T12:03:35.052Z,994.29
2023-01-09T12:04:35.034Z,994.31
2023-01-09T12:05:35.028Z,994.27
2023-01-09T12:06:35.033Z,994.31
2023-01-09T12:07:35.041Z,994.32
2023-01-09T12:08:35.010Z,994.32
2023-01-09T12:09:34.985Z,994.29
2023-01-09T12:10:34.974Z,994.36
2023-01-09T12:11:34.990Z,994.32
2023-01-09T12:12:34.948Z,994.36
2023-01-09T12:13:34.952Z,994.34
2023-01-09T12:14:34.940Z,994.40
2023-01-09T12:15:34.934Z,994.42
2023-01-09T12:16:34.978Z,994.39
2023-01-09T12:17:34.937Z,994.39
2023-01-09T12:18:34.919Z,994.41
2023-01-09T12:19:34.904Z,994.32
2023-01-09T12:20:34.869Z,994.42
2023-01-09T12:21:34.859Z,994.39
2023-01-09T12:22:34.868Z,994.36
2023-01-09T12:23:34.833Z,994.36
2023-01-09T12:24:34.835Z,994.34
2023-01-09T12:25:34.811Z,994.32
2023-01-09T12:26:34.822Z,994.38
2023-01-09T12:27:34.812Z,994.28
2023-01-09T12:28:34.769Z,994.29
2023-01-09T12:29:34.767Z,994.28
2023-01-09T12:30:34.749Z,994.32
2023-01-09T12:31:36.788Z,994.32
2023-01-09T12:32:34.741Z,994.34
2023-01-09T12:33:34.729Z,994.34
2023-01-09T12:34:34.736Z,994.31
2023-01-09T12:35:34.691Z,994.39
2023-01-09T12:36:34.723Z,994.36
2023-01-09T12:37:34.681Z,994.37
2023-01-09T12:38:34.677Z,994.33
2023-01-09T12:39:34.661Z,994.35
2023-01-09T12:40:34.661Z,994.38
2023-01-09T12:41:34.627Z,994.39
2023-01-09T12:42:34.634Z,994.40
2023-01-09T12:43:34.615Z,994.39
2023-01-09T12:44:36.324Z,994.37
2023-01-09T12:45:34.685Z,994.38
2023-01-09T12:46:34.567Z,994.46
2023-01-09T12:47:34.555Z,994.44
2023-01-09T12:48:34.612Z,994.50
2023-01-09T12:49:34.549Z,994.48
2023-01-09T12:50:34.560Z,994.50
2023-01-09T12:51:34.525Z,994.57
2023-01-09T12:52:34.520Z,994.54
2023-01-09T12:53:34.529Z,994.58
2023-01-09T12:54:34.488Z,994.59
2023-01-09T12:55:34.483Z,994.61
2023-01-09T12:56:34.472Z,994.53
2023-01-09T12:57:34.455Z,994.49
2023-01-09T12:58:34.447Z,994.57
2023-01-09T12:59:34.459Z,994.61
2023-01-09T13:00:34.412Z,994.63
2023-01-09T13:01:34.796Z,994.60
2023-01-09T13:02:34.477Z,994.64
2023-01-09T13:03:34.371Z,994.61
2023-01-09T13:04:34.387Z,994.63
2023-01-09T13:05:34.350Z,994.57
2023-01-09T13:06:34.388Z,994.58
2023-01-09T13:07:34.328Z,994.57
2023-01-09T13:08:34.332Z,994.62
2023-01-09T13:09:34.331Z,994.62
2023-01-09T13:10:34.321Z,994.63
2023-01-09T13:11:34.318Z,994.61
2023-01-09T13:12:34.279Z,994.60
2023-01-09T13:13:34.294Z,994.70
2023-01-09T13:14:34.265Z,994.70
2023-01-09T13:15:34.266Z,994.68
2023-01-09T13:16:34.304Z,994.76
2023-01-09T13:17:34.216Z,994.69
2023-01-09T13:18:34.227Z,994.74
2023-01-09T13:19:34.195Z,994.76
2023-01-09T13:20:34.224Z,994.73
2023-01-09T13:21:34.168Z,994.78
2023-01-09T13:22:34.199Z,994.80
2023-01-09T13:23:34.147Z,994.78
2023-01-09T13:24:34.157Z,994.83
2023-01-09T13:25:34.135Z,994.80
2023-01-09T13:26:34.130Z,994.84
2023-01-09T13:27:34.103Z,994.87
2023-01-09T13:28:34.099Z,994.84
2023-01-09T13:29:34.100Z,994.87
2023-01-09T13:30:34.102Z,994.93
2023-01-09T13:31:34.151Z,994.93
2023-01-09T13:32:34.051Z,994.90
2023-01-09T13:33:34.063Z,994.93
2023-01-09T13:34:34.045Z,995.01
2023-01-09T13:35:34.023Z,995.03
2023-01-09T13:36:34.138Z,995.06
2023-01-09T13:37:34.011Z,995.04
2023-01-09T13:38:34.020Z,995.06
2023-01-09T13:39:33.983Z,995.11
2023-01-09T13:40:33.976Z,995.12
2023-01-09T13:41:33.972Z,995.08
2023-01-09T13:42:33.951Z,995.13
2023-01-09T13:43:33.923Z,995.10
2023-01-09T13:44:34.679Z,995.15
2023-01-09T13:45:33.995Z,995.15
2023-01-09T13:46:33.911Z,995.17
2023-01-09T13:47:33.893Z,995.20
2023-01-09T13:48:33.887Z,995.25
2023-01-09T13:49:33.894Z,995.25
2023-01-09T13:50:33.868Z,995.25
2023-01-09T13:51:33.833Z,995.25
2023-01-09T13:52:33.835Z,995.31
2023-01-09T13:53:33.809Z,995.32
2023-01-09T13:54:33.841Z,995.33
2023-01-09T13:55:33.788Z,995.35
2023-01-09T13:56:33.797Z,995.37
2023-01-09T13:57:33.782Z,995.37
2023-01-09T13:58:33.759Z,995.37
2023-01-09T13:59:33.741Z,995.38
2023-01-09T14:00:33.749Z,995.42
2023-01-09T14:01:33.733Z,995.44
2023-01-09T14:02:33.849Z,995.48
2023-01-09T14:03:33.703Z,995.48
2023-01-09T14:04:33.694Z,995.50
2023-01-09T14:05:33.677Z,995.53
2023-01-09T14:06:33.671Z,995.55
2023-01-09T14:07:33.680Z,995.59
2023-01-09T14:08:33.700Z,995.66
2023-01-09T14:09:33.641Z,995.65
2023-01-09T14:10:33.646Z,995.67
2023-01-09T14:11:33.629Z,995.70
2023-01-09T14:12:33.628Z,995.67
2023-01-09T14:13:33.593Z,995.72
2023-01-09T14:14:33.582Z,995.73
2023-01-09T14:15:33.601Z,995.75
2023-01-09T14:16:33.643Z,995.78
2023-01-09T14:17:33.569Z,995.78
2023-01-09T14:18:33.589Z,995.85
2023-01-09T14:19:33.536Z,995.83
2023-01-09T14:20:33.537Z,995.88
2023-01-09T14:21:34.784Z,995.87
2023-01-09T14:22:42.413Z,995.91
2023-01-09T14:23:51.100Z,995.92
2023-01-09T14:24:34.469Z,995.96
2023-01-09T14:25:33.450Z,995.96
2023-01-09T14:26:33.467Z,996.05
2023-01-09T14:27:33.441Z,996.05
2023-01-09T14:28:33.435Z,996.06
2023-01-09T14:29:33.423Z,996.04
2023-01-09T14:30:33.408Z,996.07
2023-01-09T14:31:33.458Z,996.03
2023-01-09T14:32:33.392Z,996.06
2023-01-09T14:33:33.360Z,996.08
2023-01-09T14:34:33.371Z,996.07
2023-01-09T14:35:33.336Z,996.05
2023-01-09T14:36:33.422Z,996.06
2023-01-09T14:37:34.032Z,996.07
2023-01-09T14:38:33.322Z,996.09
2023-01-09T14:39:33.292Z,996.08
2023-01-09T14:40:33.300Z,996.12
2023-01-09T14:41:33.320Z,996.17
2023-01-09T14:42:33.296Z,996.25
2023-01-09T14:43:33.251Z,996.24
2023-01-09T14:44:33.251Z,996.27
2023-01-09T14:45:33.246Z,996.32
2023-01-09T14:46:33.228Z,996.32
2023-01-09T14:47:33.229Z,996.39
2023-01-09T14:48:33.194Z,996.35
2023-01-09T14:49:33.196Z,996.42
2023-01-09T14:50:33.187Z,996.44
2023-01-09T14:51:33.154Z,996.45
2023-01-09T14:52:33.159Z,996.49
2023-01-09T14:53:33.131Z,996.54
2023-01-09T14:54:33.136Z,996.55
2023-01-09T14:55:33.109Z,996.60
2023-01-09T14:56:33.116Z,996.63
2023-01-09T14:57:33.117Z,996.67
2023-01-09T14:58:33.109Z,996.66
2023-01-09T14:59:33.083Z,996.74
2023-01-09T15:00:33.072Z,996.80
2023-01-09T15:01:33.099Z,996.80
2023-01-09T15:02:33.151Z,996.81
2023-01-09T15:03:33.038Z,996.79
2023-01-09T15:04:33.046Z,996.84
2023-01-09T15:05:33.043Z,996.92
2023-01-09T15:06:32.990Z,996.95
2023-01-09T15:07:32.978Z,996.90
2023-01-09T15:08:32.970Z,996.88
2023-01-09T15:09:32.951Z,996.94
2023-01-09T15:10:33.025Z,996.97
2023-01-09T15:11:32.949Z,996.96
2023-01-09T15:12:32.962Z,997.01
2023-01-09T15:13:32.908Z,997.06
2023-01-09T15:14:32.920Z,997.09
2023-01-09T15:15:32.927Z,997.12
2023-01-09T15:16:33.032Z,997.14
2023-01-09T15:17:32.876Z,997.23
2023-01-09T15:18:32.858Z,997.17
2023-01-09T15:19:32.862Z,997.21
2023-01-09T15:20:32.835Z,997.23
2023-01-09T15:21:32.848Z,997.24
2023-01-09T15:22:32.825Z,997.27
2023-01-09T15:23:32.836Z,997.27
2023-01-09T15:24:32.805Z,997.33
2023-01-09T15:25:38.566Z,997.36
2023-01-09T15:26:33.825Z,997.36
2023-01-09T15:27:32.764Z,997.35
2023-01-09T15:28:32.746Z,997.39
2023-01-09T15:29:32.730Z,997.40
2023-01-09T15:30:32.790Z,997.46
2023-01-09T15:31:32.790Z,997.44
2023-01-09T15:32:32.709Z,997.45
2023-01-09T15:33:32.712Z,997.52
2023-01-09T15:34:32.678Z,997.50
2023-01-09T15:35:32.663Z,997.51
2023-01-09T15:36:32.720Z,997.55
2023-01-09T15:37:32.661Z,997.55
2023-01-09T15:38:32.631Z,997.61
2023-01-09T15:39:32.630Z,997.60
2023-01-09T15:40:32.620Z,997.65
2023-01-09T15:41:32.605Z,997.68
2023-01-09T15:42:32.604Z,997.71
2023-01-09T15:43:32.603Z,997.74
2023-01-09T15:44:32.584Z,997.76
2023-01-09T15:45:32.628Z,997.81
2023-01-09T15:46:32.577Z,997.82
2023-01-09T15:47:32.542Z,997.84
2023-01-09T15:48:32.546Z,997.82
2023-01-09T15:49:32.515Z,997.83
2023-01-09T15:50:32.524Z,997.83
2023-01-09T15:51:32.504Z,997.89
2023-01-09T15:52:32.501Z,997.88
2023-01-09T15:53:32.490Z,997.87
2023-01-09T15:54:32.479Z,997.93
2023-01-09T15:55:32.438Z,997.91
2023-01-09T15:56:32.438Z,997.87
2023-01-09T15:57:32.441Z,997.98
2023-01-09T15:58:32.428Z,997.91
2023-01-09T15:59:32.415Z,997.93
2023-01-09T16:00:32.410Z,998.00
2023-01-09T16:01:32.379Z,998.03
2023-01-09T16:02:32.409Z,998.05
2023-01-09T16:03:32.351Z,998.06
2023-01-09T16:04:32.337Z,998.04
2023-01-09T16:05:32.335Z,998.06
2023-01-09T16:06:32.313Z,998.08
2023-01-09T16:07:32.314Z,998.11
2023-01-09T16:08:32.319Z,998.11
2023-01-09T16:09:32.302Z,998.13
2023-01-09T16:10:32.289Z,998.17
2023-01-09T16:11:32.269Z,998.19
2023-01-09T16:12:32.261Z,998.19
2023-01-09T16:13:32.259Z,998.22
2023-01-09T16:14:32.237Z,998.26
2023-01-09T16:15:32.221Z,998.30
2023-01-09T16:16:32.273Z,998.25
2023-01-09T16:17:32.184Z,998.31
2023-01-09T16:18:32.236Z,998.30
2023-01-09T16:19:32.176Z,998.28
2023-01-09T16:20:32.161Z,998.33
2023-01-09T16:21:32.159Z,998.39
2023-01-09T16:22:32.151Z,998.40
2023-01-09T16:23:32.162Z,998.47
2023-01-09T16:24:32.110Z,998.48
2023-01-09T16:25:32.097Z,998.50
2023-01-09T16:26:32.087Z,998.53
2023-01-09T16:27:32.096Z,998.54
2023-01-09T16:28:32.102Z,998.57
2023-01-09T16:29:32.064Z,998.56
2023-01-09T16:30:32.050Z,998.54
2023-01-09T16:31:32.118Z,998.52
2023-01-09T16:32:32.048Z,998.52
2023-01-09T16:33:32.038Z,998.52
2023-01-09T16:34:32.049Z,998.53
2023-01-09T16:35:31.985Z,998.53
2023-01-09T16:36:32.054Z,998.60
2023-01-09T16:37:31.984Z,998.62
2023-01-09T16:38:31.964Z,998.58
2023-01-09T16:39:31.940Z,998.58
2023-01-09T16:40:31.968Z,998.58
2023-01-09T16:41:31.920Z,998.54
2023-01-09T16:42:31.932Z,998.57
2023-01-09T16:43:31.893Z,998.57
2023-01-09T16:44:31.901Z,998.65
2023-01-09T16:45:31.951Z,998.70
2023-01-09T16:46:31.871Z,998.71
2023-01-09T16:47:31.888Z,998.68
2023-01-09T16:48:31.862Z,998.72
2023-01-09T16:49:31.846Z,998.70
2023-01-09T16:50:31.863Z,998.73
2023-01-09T16:51:31.835Z,998.78
2023-01-09T16:52:31.817Z,998.78
2023-01-09T16:53:31.816Z,998.80
2023-01-09T16:54:31.765Z,998.80
2023-01-09T16:55:31.782Z,998.82
2023-01-09T16:56:31.757Z,998.84
2023-01-09T16:57:31.767Z,998.79
2023-01-09T16:58:31.736Z,998.79
2023-01-09T16:59:31.745Z,998.84
2023-01-09T17:00:31.721Z,998.77
2023-01-09T17:01:31.746Z,998.80
2023-01-09T17:02:31.747Z,998.79
2023-01-09T17:03:31.696Z,998.76
2023-01-09T17:04:31.662Z,998.78
2023-01-09T17:05:31.699Z,998.77
2023-01-09T17:06:31.698Z,998.77
2023-01-09T17:07:31.655Z,998.78
2023-01-09T17:08:31.609Z,998.86
2023-01-09T17:09:31.619Z,998.85
2023-01-09T17:10:31.605Z,998.86
2023-01-09T17:11:32.008Z,998.91
2023-01-09T17:12:31.577Z,998.90
2023-01-09T17:13:31.575Z,998.90
2023-01-09T17:14:31.545Z,998.92
2023-01-09T17:15:32.531Z,998.93
2023-01-09T17:16:31.626Z,998.94
2023-01-09T17:17:31.534Z,998.98
2023-01-09T17:18:31.524Z,998.99
2023-01-09T17:19:31.506Z,999.03
2023-01-09T17:20:31.478Z,998.95
2023-01-09T17:21:31.485Z,999.01
2023-01-09T17:22:31.493Z,999.06
2023-01-09T17:23:31.460Z,999.07
2023-01-09T17:24:31.441Z,999.06
2023-01-09T17:25:31.427Z,999.05
2023-01-09T17:26:31.405Z,999.07
2023-01-09T17:27:31.402Z,999.10
2023-01-09T17:28:31.418Z,999.11
2023-01-09T17:29:31.403Z,999.15
2023-01-09T17:30:31.368Z,999.15
2023-01-09T17:31:31.550Z,999.14
2023-01-09T17:32:31.348Z,999.12
2023-01-09T17:33:31.336Z,999.18
2023-01-09T17:34:31.344Z,999.17
2023-01-09T17:35:31.309Z,999.16
